Hlavní strana
METAR-TAF:

METAR-TAF

Letiště :

Adrar, Alžírsko

zeměpisná šířka: 27-53N, zeměpisná délka: 000-17W, výška: 263 m

Aktuální stav počasí

Zpráva byla vytvořena před 33 minutami, v 13:00 UTC
Jihojihozápadní vítr 16 kt
Teplota 29°C
Tlak 1011 hPa
Viditelnost: 7000 m

METAR: DAUA 011300Z 20016KT 7000 NSC 29/// Q1011

Čas: 14:33 (13:33 UTC)

Předpověď počasí

Zpráva byla vytvořena před 2 hodinami a 33 minutami, v 11:00 UTC
Předpověď platná od 01 v 12 UTC do 02 v 12 UTC
Jižní vítr 12 kt
Viditelnost: 8000 m
Pravděpodobnost 30%
od 01 v 14 UTC do 01 v 17 UTC
Jihozápadní vítr 22 kt
Viditelnost: 4000 m
nízko zvířený písek
Změna
od 01 v 20 UTC do 01 v 23 UTC
vítr z různých směrů 2 kt

TAF: DAUA 011100Z 0112/0212 18012KT 8000 NSC PROB30 0114/0117 22022KT 4000 DRSA BECMG 0120/0123 VRB02KT

Stav a předpovědi počasí z více než 4 000 letišť (zprávy METAR a TAF).

Červené a žluté tečky na mapě představují dostupné meteorologické stanice.

Když kurzor umístíte na tečku, zobrazí se název stanice.

Pak kliknutím zobrazíte stav a předpověď počasí.

Chcete-li změnit mapu, kliknutím na zelené tlačítko se znaménkem +mapu přiblížíte, kliknutím na zelené tlačítko se znaménkem – mapu oddálíte a kliknutím na zelené šipky přejdete na sousední mapy.


METAR-TAF: